In Rescue
 
Open Full Screen Window  High Contrast Mode
Wind Gusting 25 knots
18
March 29, 2020 5:55 PM CDT
Weather Information
Wind Direction
  330 °
Wind Speed
  18 kt (21 mph)
Wind Gust
  25 kt (29 mph)
Altimeter
29.98 in
Visibility
10 SM
Temperature
11° C
52° F
Dewpoint
-03° C
27° F
Humidity
38%
1hr Rain Fall
00.00 in.
24hr Rain Fall
00.21 in.
Sky Condition
Clear
VFR

METAR KMJQ 292255Z AUTO 33018G25KT 10SM CLR 11/M03 A2998 RMK AO2

FAA Disclaimer: The data displayed is for advisory purposes only and is not to be used for flight planning or operations.